Time;durP1;ratioP1;P1;durP2;ratioP2;P2;SDS_P1;SDS_P2;PMS_P1;PMS_P2;Temp;Humidity;BMP_temperature;BMP_pressure;BME280_temperature;BME280_humidity;BME280_pressure;Samples;Min_cycle;Max_cycle;Signal;HPM_P1;HPM_P2
2021/07/19 00:02:22;;;;;;;17.85;10.38;;;;;;;;;;5015018;28;20265;-69
2021/07/19 00:04:47;;;;;;;20.33;10.07;;;;;;;;;;5013862;28;20325;-69
2021/07/19 00:07:13;;;;;;;18.10;10.25;;;;;;;;;;5020075;28;20201;-69
2021/07/19 00:09:44;;;;;;;15.70;9.50;;;;;;;;;;5024877;28;20312;-69
2021/07/19 00:12:10;;;;;;;15.02;9.55;;;;;;;;;;5019549;28;20190;-69
2021/07/19 00:14:36;;;;;;;15.27;9.55;;;;;;;;;;5024411;28;20272;-69
2021/07/19 00:17:01;;;;;;;20.42;10.00;;;;;;;;;;5016386;28;21064;-70
2021/07/19 00:19:26;;;;;;;19.63;10.90;;;;;;;;;;5021053;28;20538;-69
2021/07/19 00:21:52;;;;;;;17.42;10.90;;;;;;;;;;5013717;28;20269;-69
2021/07/19 00:24:17;;;;;;;16.33;9.95;;;;;;;;;;5022166;28;20239;-69
2021/07/19 00:26:43;;;;;;;15.40;10.13;;;;;;;;;;5013628;28;20178;-69
2021/07/19 00:29:08;;;;;;;17.30;10.60;;;;;;;;;;5022584;28;20178;-69
2021/07/19 00:31:34;;;;;;;13.65;9.25;;;;;;;;;;5010134;28;20205;-69
2021/07/19 00:34:03;;;;;;;16.42;10.88;;;;;;;;;;5015475;28;20190;-69
2021/07/19 00:36:29;;;;;;;17.65;10.48;;;;;;;;;;5009059;28;20193;-69
2021/07/19 00:38:54;;;;;;;15.68;10.15;;;;;;;;;;5025909;28;20197;-69
2021/07/19 00:41:20;;;;;;;18.52;9.95;;;;;;;;;;5012769;28;20646;-69
2021/07/19 00:43:46;;;;;;;15.55;9.32;;;;;;;;;;5025784;28;20220;-69
2021/07/19 00:46:12;;;;;;;15.88;9.13;;;;;;;;;;5020701;28;20198;-70
2021/07/19 00:48:38;;;;;;;21.05;10.48;;;;;;;;;;5003388;28;20273;-69
2021/07/19 00:51:04;;;;;;;17.10;9.63;;;;;;;;;;5030161;28;20700;-69
2021/07/19 00:53:30;;;;;;;17.33;10.27;;;;;;;;;;5035000;28;20180;-69
2021/07/19 00:55:57;;;;;;;18.55;10.35;;;;;;;;;;5048346;28;20631;-69
2021/07/19 00:58:27;;;;;;;15.02;9.75;;;;;;;;;;5034798;28;20206;-69
2021/07/19 01:00:54;;;;;;;14.90;9.80;;;;;;;;;;5041783;28;20239;-69
2021/07/19 01:03:23;;;;;;;13.52;9.20;;;;;;;;;;5029811;28;20213;-69
2021/07/19 01:05:49;;;;;;;16.67;9.98;;;;;;;;;;5041883;28;20200;-69
2021/07/19 01:08:18;;;;;;;16.63;9.98;;;;;;;;;;5032850;28;20284;-69
2021/07/19 01:10:44;;;;;;;16.33;9.32;;;;;;;;;;5041273;28;20212;-69
2021/07/19 01:13:09;;;;;;;13.32;9.60;;;;;;;;;;5037901;28;20182;-69
2021/07/19 01:15:37;;;;;;;15.02;9.73;;;;;;;;;;5045734;28;20675;-69
2021/07/19 01:18:04;;;;;;;16.40;10.77;;;;;;;;;;5040795;28;20211;-69
2021/07/19 01:20:47;;;;;;;15.70;10.23;;;;;;;;;;5048709;28;20193;-69
2021/07/19 01:23:45;;;;;;;16.60;10.13;;;;;;;;;;5042850;28;20205;-69
2021/07/19 01:26:28;;;;;;;15.80;10.00;;;;;;;;;;5045011;28;20632;-69
2021/07/19 01:28:54;;;;;;;17.95;10.15;;;;;;;;;;5041080;28;20275;-70
2021/07/19 01:31:30;;;;;;;16.90;11.15;;;;;;;;;;5045860;28;20209;-69
2021/07/19 01:34:04;;;;;;;15.02;10.40;;;;;;;;;;5039976;28;20200;-69
2021/07/19 01:36:34;;;;;;;19.45;12.10;;;;;;;;;;5042528;28;20309;-69
2021/07/19 01:39:00;;;;;;;15.30;10.50;;;;;;;;;;5047253;28;20535;-70
2021/07/19 01:41:28;;;;;;;15.82;11.02;;;;;;;;;;5044090;28;20173;-69
2021/07/19 01:43:56;;;;;;;18.55;10.82;;;;;;;;;;5047169;28;20209;-69
2021/07/19 01:46:23;;;;;;;19.23;11.15;;;;;;;;;;5038467;28;20188;-69
2021/07/19 01:48:49;;;;;;;17.17;11.60;;;;;;;;;;5047201;28;20183;-69
2021/07/19 01:51:15;;;;;;;18.88;11.50;;;;;;;;;;5021111;28;20708;-69
2021/07/19 01:53:42;;;;;;;17.20;11.48;;;;;;;;;;5026854;28;20208;-69
2021/07/19 01:56:08;;;;;;;17.55;10.68;;;;;;;;;;5017187;28;20186;-69
2021/07/19 01:58:34;;;;;;;17.38;10.35;;;;;;;;;;5026181;28;20605;-69
2021/07/19 02:01:00;;;;;;;16.50;10.90;;;;;;;;;;5017857;28;20237;-69
2021/07/19 02:03:26;;;;;;;20.08;11.15;;;;;;;;;;5021468;28;20554;-70
2021/07/19 02:05:54;;;;;;;16.25;10.88;;;;;;;;;;5002415;28;20210;-69
2021/07/19 02:08:21;;;;;;;18.58;10.55;;;;;;;;;;5024136;28;20181;-69
2021/07/19 02:10:49;;;;;;;17.25;10.70;;;;;;;;;;5015121;28;20653;-69
2021/07/19 02:13:15;;;;;;;16.80;11.25;;;;;;;;;;5003931;28;20186;-69
2021/07/19 02:15:42;;;;;;;19.77;11.25;;;;;;;;;;5023629;28;20186;-69
2021/07/19 02:18:10;;;;;;;16.48;10.98;;;;;;;;;;5015414;28;20286;-69
2021/07/19 02:20:35;;;;;;;16.00;10.85;;;;;;;;;;5028612;28;20193;-69
2021/07/19 02:23:05;;;;;;;15.20;10.57;;;;;;;;;;5015876;28;20669;-69
2021/07/19 02:25:33;;;;;;;17.15;10.38;;;;;;;;;;5028107;28;20217;-69
2021/07/19 02:28:00;;;;;;;15.85;10.90;;;;;;;;;;5016728;28;20201;-69
2021/07/19 02:30:27;;;;;;;21.85;12.07;;;;;;;;;;5027873;28;20186;-69
2021/07/19 02:32:56;;;;;;;14.25;10.57;;;;;;;;;;5018197;28;20580;-69
2021/07/19 02:35:23;;;;;;;20.15;11.30;;;;;;;;;;5026599;28;20197;-69
2021/07/19 02:37:51;;;;;;;18.98;10.90;;;;;;;;;;5016670;28;20182;-70
2021/07/19 02:40:19;;;;;;;17.73;11.38;;;;;;;;;;5019283;28;20197;-69
2021/07/19 02:42:49;;;;;;;17.27;11.77;;;;;;;;;;5017085;28;20197;-69
2021/07/19 02:45:16;;;;;;;21.20;12.15;;;;;;;;;;5020737;28;20674;-69
2021/07/19 02:47:44;;;;;;;18.25;12.18;;;;;;;;;;4998656;28;20188;-69
2021/07/19 02:50:11;;;;;;;15.57;10.75;;;;;;;;;;5022474;28;20181;-69
2021/07/19 02:52:37;;;;;;;20.00;11.50;;;;;;;;;;5025004;28;20189;-69
2021/07/19 02:55:04;;;;;;;19.33;11.32;;;;;;;;;;5017319;28;20218;-69
2021/07/19 02:57:30;;;;;;;19.40;10.77;;;;;;;;;;5024879;28;20180;-69
2021/07/19 02:59:57;;;;;;;18.45;11.30;;;;;;;;;;5000791;28;20214;-69
2021/07/19 03:02:25;;;;;;;21.00;11.27;;;;;;;;;;5027244;28;20251;-69
2021/07/19 03:04:54;;;;;;;18.50;10.95;;;;;;;;;;5018895;28;20546;-69
2021/07/19 03:07:22;;;;;;;18.05;10.95;;;;;;;;;;5025515;28;20189;-69
2021/07/19 03:09:51;;;;;;;16.35;10.75;;;;;;;;;;5015615;28;20232;-69
2021/07/19 03:12:19;;;;;;;16.67;11.25;;;;;;;;;;5026694;28;20187;-69
2021/07/19 03:14:48;;;;;;;17.10;10.82;;;;;;;;;;5020989;28;20189;-69
2021/07/19 03:17:17;;;;;;;18.85;11.00;;;;;;;;;;5030085;28;20251;-69
2021/07/19 03:19:43;;;;;;;19.08;10.88;;;;;;;;;;5003483;28;20221;-69
2021/07/19 03:22:09;;;;;;;19.52;11.15;;;;;;;;;;5024984;28;20595;-69
2021/07/19 03:24:37;;;;;;;18.85;11.63;;;;;;;;;;5022016;28;20214;-69
2021/07/19 03:27:02;;;;;;;20.88;11.18;;;;;;;;;;5027050;28;20185;-69
2021/07/19 03:29:28;;;;;;;23.23;12.35;;;;;;;;;;5026972;28;20692;-69
2021/07/19 03:31:55;;;;;;;24.30;11.10;;;;;;;;;;5019203;28;20200;-69
2021/07/19 03:34:21;;;;;;;19.88;11.85;;;;;;;;;;5022975;28;20179;-69
2021/07/19 03:36:49;;;;;;;21.25;11.25;;;;;;;;;;5019356;28;20272;-69
2021/07/19 03:39:16;;;;;;;21.92;12.07;;;;;;;;;;5005169;28;20597;-69
2021/07/19 03:41:42;;;;;;;23.45;11.45;;;;;;;;;;5013605;28;20240;-69
2021/07/19 03:44:08;;;;;;;21.48;12.40;;;;;;;;;;5026820;28;20619;-69
2021/07/19 03:46:33;;;;;;;18.73;12.50;;;;;;;;;;5016215;28;20201;-69
2021/07/19 03:49:00;;;;;;;16.98;12.13;;;;;;;;;;5029291;28;20186;-69
2021/07/19 03:51:29;;;;;;;18.95;11.68;;;;;;;;;;5013260;28;20710;-69
2021/07/19 03:53:55;;;;;;;21.13;12.18;;;;;;;;;;5023439;28;20236;-69
2021/07/19 03:56:20;;;;;;;21.45;13.18;;;;;;;;;;5016110;28;20604;-69
2021/07/19 03:58:46;;;;;;;19.60;13.00;;;;;;;;;;5023863;28;20252;-69
2021/07/19 04:01:13;;;;;;;20.77;13.00;;;;;;;;;;5025381;28;20205;-69
2021/07/19 04:03:52;;;;;;;23.83;12.35;;;;;;;;;;5016682;28;20492;-70
2021/07/19 04:06:19;;;;;;;21.05;12.38;;;;;;;;;;5022848;28;20174;-69
2021/07/19 04:08:45;;;;;;;20.17;11.73;;;;;;;;;;5015332;28;20204;-69
2021/07/19 04:11:14;;;;;;;24.85;12.68;;;;;;;;;;5021665;28;20178;-69
2021/07/19 04:13:40;;;;;;;24.35;11.85;;;;;;;;;;5015501;28;20657;-69
2021/07/19 04:16:06;;;;;;;19.77;12.88;;;;;;;;;;5023124;28;20189;-70
2021/07/19 04:18:32;;;;;;;22.52;13.07;;;;;;;;;;5015160;28;20493;-69
2021/07/19 04:20:58;;;;;;;18.90;11.88;;;;;;;;;;5026514;28;20225;-69
2021/07/19 04:23:24;;;;;;;23.90;12.88;;;;;;;;;;5014721;28;21256;-69
2021/07/19 04:25:50;;;;;;;18.23;12.32;;;;;;;;;;5020885;28;20174;-69
2021/07/19 04:28:20;;;;;;;20.60;11.23;;;;;;;;;;5015160;28;20186;-70
2021/07/19 04:30:46;;;;;;;24.05;12.80;;;;;;;;;;5010419;28;20186;-69
2021/07/19 04:33:16;;;;;;;29.30;12.40;;;;;;;;;;5014259;28;20307;-69
2021/07/19 04:35:45;;;;;;;18.95;11.43;;;;;;;;;;5022748;28;20193;-70
2021/07/19 04:38:11;;;;;;;19.90;11.75;;;;;;;;;;5024079;28;20654;-69
2021/07/19 04:40:37;;;;;;;20.42;11.93;;;;;;;;;;5015220;28;20301;-69
2021/07/19 04:43:02;;;;;;;20.70;11.93;;;;;;;;;;5024489;28;20182;-69
2021/07/19 04:45:27;;;;;;;21.98;12.25;;;;;;;;;;5011264;28;20268;-69
2021/07/19 04:47:53;;;;;;;17.63;11.30;;;;;;;;;;5026330;28;20672;-69
2021/07/19 04:50:18;;;;;;;19.08;11.52;;;;;;;;;;5009421;28;20727;-69
2021/07/19 04:52:44;;;;;;;19.27;10.65;;;;;;;;;;5027445;28;20182;-69
2021/07/19 04:55:12;;;;;;;15.48;11.27;;;;;;;;;;5020251;28;20593;-69
2021/07/19 04:57:41;;;;;;;21.67;12.32;;;;;;;;;;5028188;28;20256;-69
2021/07/19 05:00:06;;;;;;;21.02;11.60;;;;;;;;;;5022893;28;20228;-69
2021/07/19 05:02:35;;;;;;;21.77;11.95;;;;;;;;;;5021060;28;20316;-69
2021/07/19 05:05:01;;;;;;;22.25;12.38;;;;;;;;;;5015357;28;20202;-69
2021/07/19 05:07:32;;;;;;;16.77;11.45;;;;;;;;;;5025520;28;20194;-69
2021/07/19 05:10:03;;;;;;;24.08;11.43;;;;;;;;;;5022302;28;20182;-69
2021/07/19 05:12:30;;;;;;;24.48;12.00;;;;;;;;;;5023565;28;20186;-69
2021/07/19 05:14:57;;;;;;;21.25;11.35;;;;;;;;;;5024224;28;20190;-69
2021/07/19 05:17:24;;;;;;;19.75;11.65;;;;;;;;;;5017010;28;20320;-69
2021/07/19 05:19:49;;;;;;;17.88;11.70;;;;;;;;;;5009774;28;20182;-68
2021/07/19 05:22:16;;;;;;;23.00;12.23;;;;;;;;;;5017305;28;20201;-69
2021/07/19 05:24:42;;;;;;;18.23;10.98;;;;;;;;;;5018216;28;20294;-69
2021/07/19 05:27:09;;;;;;;18.20;10.77;;;;;;;;;;5013971;28;21534;-69
2021/07/19 05:29:35;;;;;;;20.73;11.23;;;;;;;;;;5022286;28;20201;-69
2021/07/19 05:32:05;;;;;;;19.88;11.68;;;;;;;;;;5017567;28;20194;-72
2021/07/19 05:34:31;;;;;;;24.73;11.65;;;;;;;;;;5025420;28;20227;-69
2021/07/19 05:36:56;;;;;;;22.17;11.38;;;;;;;;;;5016050;28;20724;-71
2021/07/19 05:39:22;;;;;;;19.52;11.75;;;;;;;;;;5019302;28;20190;-68
2021/07/19 05:41:47;;;;;;;18.65;11.40;;;;;;;;;;5014155;28;20276;-69
2021/07/19 05:44:13;;;;;;;19.48;10.88;;;;;;;;;;5021419;28;20202;-69
2021/07/19 05:46:39;;;;;;;22.08;10.82;;;;;;;;;;5018337;28;20186;-69
2021/07/19 05:49:05;;;;;;;21.92;11.52;;;;;;;;;;5027414;28;20285;-69
2021/07/19 05:51:30;;;;;;;19.50;11.13;;;;;;;;;;5025078;28;20234;-69
2021/07/19 05:53:55;;;;;;;19.70;11.35;;;;;;;;;;5013363;28;20634;-69
2021/07/19 05:56:21;;;;;;;21.13;10.95;;;;;;;;;;5024780;28;20194;-69
2021/07/19 05:58:46;;;;;;;23.10;10.68;;;;;;;;;;5018897;28;20267;-69
2021/07/19 06:01:12;;;;;;;15.35;9.95;;;;;;;;;;5022523;28;20217;-69
2021/07/19 06:03:37;;;;;;;19.85;9.68;;;;;;;;;;5019111;28;20210;-68
2021/07/19 06:06:02;;;;;;;17.40;9.95;;;;;;;;;;5022810;28;20186;-69
2021/07/19 06:08:28;;;;;;;20.95;10.48;;;;;;;;;;5018224;28;20194;-69
2021/07/19 06:10:53;;;;;;;17.42;10.73;;;;;;;;;;5004984;28;20199;-69
2021/07/19 06:13:18;;;;;;;19.75;10.45;;;;;;;;;;5017249;28;20621;-69
2021/07/19 06:15:45;;;;;;;16.40;9.75;;;;;;;;;;5022991;28;20186;-70
2021/07/19 06:18:10;;;;;;;17.42;9.88;;;;;;;;;;5030745;28;20664;-70
2021/07/19 06:20:35;;;;;;;14.95;9.35;;;;;;;;;;5022168;28;20190;-69
2021/07/19 06:23:02;;;;;;;15.90;9.45;;;;;;;;;;5028444;28;20209;-70
2021/07/19 06:25:29;;;;;;;17.70;10.07;;;;;;;;;;5013526;28;20556;-69
2021/07/19 06:27:55;;;;;;;18.30;10.57;;;;;;;;;;5018181;28;20261;-71
2021/07/19 06:30:21;;;;;;;24.13;11.35;;;;;;;;;;5015855;28;20266;-70
2021/07/19 06:32:46;;;;;;;23.48;11.13;;;;;;;;;;5010063;28;20217;-71
2021/07/19 06:35:12;;;;;;;19.45;10.68;;;;;;;;;;5000711;28;20232;-70
2021/07/19 06:37:38;;;;;;;17.25;10.63;;;;;;;;;;5023764;28;20263;-69
2021/07/19 06:40:05;;;;;;;18.45;11.10;;;;;;;;;;5011576;28;20220;-72
2021/07/19 06:42:30;;;;;;;15.80;10.25;;;;;;;;;;5023520;28;20277;-69
2021/07/19 06:44:58;;;;;;;20.17;10.93;;;;;;;;;;5010654;28;20337;-69
2021/07/19 06:47:24;;;;;;;16.05;9.80;;;;;;;;;;5018491;28;20225;-69
2021/07/19 06:49:50;;;;;;;16.60;9.82;;;;;;;;;;5015178;28;20244;-68
2021/07/19 06:52:15;;;;;;;17.60;10.35;;;;;;;;;;5019136;28;20723;-69
2021/07/19 06:54:41;;;;;;;20.55;9.48;;;;;;;;;;5026257;28;20190;-68
2021/07/19 06:57:06;;;;;;;14.35;9.18;;;;;;;;;;5016097;28;20186;-69
2021/07/19 06:59:32;;;;;;;23.60;10.63;;;;;;;;;;5023975;28;20245;-69
2021/07/19 07:01:57;;;;;;;16.60;9.10;;;;;;;;;;5017940;28;20188;-70
2021/07/19 07:04:22;;;;;;;17.02;9.48;;;;;;;;;;5024445;28;20225;-68
2021/07/19 07:06:48;;;;;;;16.60;9.52;;;;;;;;;;5013697;28;20563;-68
2021/07/19 07:09:13;;;;;;;17.10;9.07;;;;;;;;;;5023861;28;20560;-68
2021/07/19 07:11:38;;;;;;;18.63;9.40;;;;;;;;;;5012861;28;20193;-70
2021/07/19 07:14:05;;;;;;;16.85;9.80;;;;;;;;;;5022943;28;20190;-69
2021/07/19 07:16:31;;;;;;;13.95;8.70;;;;;;;;;;5014000;28;20229;-69
2021/07/19 07:18:56;;;;;;;16.05;9.90;;;;;;;;;;5021575;28;20178;-69
2021/07/19 07:21:22;;;;;;;14.82;9.05;;;;;;;;;;5014855;28;20217;-68
2021/07/19 07:23:48;;;;;;;14.40;9.35;;;;;;;;;;5023558;28;20285;-69
2021/07/19 07:26:13;;;;;;;17.95;9.68;;;;;;;;;;5021821;28;20186;-69
2021/07/19 07:28:38;;;;;;;16.00;9.98;;;;;;;;;;5013488;28;20318;-69
2021/07/19 07:31:04;;;;;;;16.00;9.77;;;;;;;;;;5023309;28;20248;-69
2021/07/19 07:33:29;;;;;;;13.02;8.85;;;;;;;;;;5015827;28;20288;-69
2021/07/19 07:35:55;;;;;;;15.35;8.80;;;;;;;;;;4997246;28;20673;-69
2021/07/19 07:38:20;;;;;;;16.50;9.65;;;;;;;;;;5014761;28;20190;-69
2021/07/19 07:40:48;;;;;;;17.75;9.40;;;;;;;;;;5019619;28;20194;-69
2021/07/19 07:43:13;;;;;;;19.13;9.13;;;;;;;;;;5013488;28;20205;-69
2021/07/19 07:45:38;;;;;;;16.08;8.73;;;;;;;;;;5022613;28;20213;-71
2021/07/19 07:48:04;;;;;;;16.67;8.60;;;;;;;;;;5017063;28;20186;-70
2021/07/19 07:50:29;;;;;;;13.45;8.95;;;;;;;;;;5021150;28;20226;-69
2021/07/19 07:52:55;;;;;;;16.50;8.45;;;;;;;;;;5011079;28;20187;-68
2021/07/19 07:55:20;;;;;;;18.63;9.50;;;;;;;;;;5016908;28;20266;-70
2021/07/19 07:57:46;;;;;;;14.35;8.93;;;;;;;;;;5026423;28;20186;-69
2021/07/19 08:00:14;;;;;;;16.60;8.63;;;;;;;;;;5005633;28;20205;-70
2021/07/19 08:02:41;;;;;;;14.57;9.25;;;;;;;;;;5022287;28;20217;-67
2021/07/19 08:05:07;;;;;;;14.52;8.43;;;;;;;;;;4996190;28;20573;-68
2021/07/19 08:07:32;;;;;;;12.18;7.70;;;;;;;;;;5022838;28;20224;-70
2021/07/19 08:09:59;;;;;;;12.73;7.40;;;;;;;;;;5013819;28;20232;-70
2021/07/19 08:12:25;;;;;;;16.48;8.35;;;;;;;;;;5022092;28;20273;-70
2021/07/19 08:14:50;;;;;;;16.83;8.70;;;;;;;;;;4999453;28;20281;-71
2021/07/19 08:17:15;;;;;;;14.75;8.38;;;;;;;;;;5024423;28;20177;-69
2021/07/19 08:19:42;;;;;;;14.13;8.55;;;;;;;;;;4985383;28;20182;-68
2021/07/19 08:22:11;;;;;;;15.30;8.50;;;;;;;;;;5024561;28;20178;-68
2021/07/19 08:24:37;;;;;;;12.05;7.45;;;;;;;;;;5015745;28;20202;-69
2021/07/19 08:27:03;;;;;;;15.77;7.55;;;;;;;;;;5015903;28;20646;-72
2021/07/19 08:29:28;;;;;;;11.77;7.07;;;;;;;;;;5003624;28;20191;-69
2021/07/19 08:31:55;;;;;;;12.73;7.20;;;;;;;;;;5011736;28;20194;-70
2021/07/19 08:34:20;;;;;;;14.77;8.02;;;;;;;;;;5020946;28;20214;-68
2021/07/19 08:36:46;;;;;;;13.88;7.65;;;;;;;;;;5014459;28;20267;-68
2021/07/19 08:39:11;;;;;;;15.60;8.02;;;;;;;;;;5023052;28;20208;-68
2021/07/19 08:41:37;;;;;;;17.27;7.90;;;;;;;;;;5015260;28;20216;-69
2021/07/19 08:44:06;;;;;;;18.13;8.32;;;;;;;;;;5022854;28;20213;-69
2021/07/19 08:46:33;;;;;;;17.05;7.90;;;;;;;;;;5010430;28;20182;-68
2021/07/19 08:48:59;;;;;;;13.95;8.00;;;;;;;;;;5021814;28;20174;-69
2021/07/19 08:51:25;;;;;;;13.02;7.70;;;;;;;;;;5012695;28;20698;-68
2021/07/19 08:53:54;;;;;;;13.68;7.65;;;;;;;;;;5019224;28;20187;-68
2021/07/19 08:56:20;;;;;;;13.48;7.85;;;;;;;;;;5010350;28;20195;-71
2021/07/19 08:58:46;;;;;;;15.50;7.18;;;;;;;;;;5017625;28;20718;-69
2021/07/19 09:01:13;;;;;;;14.48;7.63;;;;;;;;;;5018644;28;20197;-72
2021/07/19 09:03:39;;;;;;;13.77;7.85;;;;;;;;;;5023872;28;20210;-68
2021/07/19 09:06:04;;;;;;;17.13;8.00;;;;;;;;;;5022759;28;20174;-68
2021/07/19 09:08:29;;;;;;;12.95;7.47;;;;;;;;;;5011455;28;20194;-69
2021/07/19 09:10:55;;;;;;;12.68;8.05;;;;;;;;;;5023478;28;20193;-70
2021/07/19 09:13:22;;;;;;;15.50;7.72;;;;;;;;;;5016201;28;20194;-67
2021/07/19 09:15:56;;;;;;;15.13;7.47;;;;;;;;;;5022094;28;20170;-68
2021/07/19 09:18:24;;;;;;;11.90;8.15;;;;;;;;;;5009536;28;20209;-68
2021/07/19 09:20:50;;;;;;;15.70;8.07;;;;;;;;;;5025547;28;20539;-69
2021/07/19 09:23:28;;;;;;;12.85;7.72;;;;;;;;;;5012584;28;20195;-68
2021/07/19 09:25:57;;;;;;;15.15;8.10;;;;;;;;;;5025040;28;20170;-69
2021/07/19 09:28:29;;;;;;;16.23;8.38;;;;;;;;;;5011337;28;20273;-70
2021/07/19 09:31:03;;;;;;;13.45;8.00;;;;;;;;;;5023318;28;20634;-69
2021/07/19 09:33:28;;;;;;;14.27;8.55;;;;;;;;;;5014384;28;20191;-70
2021/07/19 09:35:54;;;;;;;16.15;8.23;;;;;;;;;;5018879;28;20194;-69
2021/07/19 09:38:19;;;;;;;15.98;8.68;;;;;;;;;;5016038;28;20637;-71
2021/07/19 09:40:47;;;;;;;19.27;8.88;;;;;;;;;;5025531;28;20183;-71
2021/07/19 09:43:22;;;;;;;12.68;7.80;;;;;;;;;;5021465;28;20589;-70
2021/07/19 09:46:03;;;;;;;11.88;8.27;;;;;;;;;;5031324;28;20484;-69
2021/07/19 09:48:29;;;;;;;14.68;8.27;;;;;;;;;;5021626;28;20201;-68
2021/07/19 09:50:56;;;;;;;15.32;8.02;;;;;;;;;;5024718;28;20225;-69
2021/07/19 09:53:29;;;;;;;13.65;8.27;;;;;;;;;;5040141;28;20193;-69
2021/07/19 09:56:22;;;;;;;16.92;8.30;;;;;;;;;;5037423;28;20653;-70
2021/07/19 09:59:02;;;;;;;12.82;8.40;;;;;;;;;;5038583;28;20228;-68
2021/07/19 10:01:29;;;;;;;13.50;8.40;;;;;;;;;;5037293;28;20263;-69
2021/07/19 10:04:21;;;;;;;13.45;7.97;;;;;;;;;;5043374;28;20263;-69
2021/07/19 10:06:51;;;;;;;15.15;8.65;;;;;;;;;;5032619;28;20406;-69
2021/07/19 10:09:17;;;;;;;14.15;8.27;;;;;;;;;;5045329;28;20178;-71
2021/07/19 10:11:48;;;;;;;14.38;8.13;;;;;;;;;;5034721;28;20546;-69
2021/07/19 10:14:24;;;;;;;11.07;7.60;;;;;;;;;;5039269;28;20538;-68
2021/07/19 10:16:51;;;;;;;13.70;8.20;;;;;;;;;;5036520;28;20637;-68
2021/07/19 10:19:16;;;;;;;14.60;8.27;;;;;;;;;;5045196;28;20549;-71
2021/07/19 10:21:42;;;;;;;10.18;7.07;;;;;;;;;;5020287;28;20174;-70
2021/07/19 10:24:09;;;;;;;14.52;7.82;;;;;;;;;;5047624;28;20288;-69
2021/07/19 10:26:35;;;;;;;14.70;8.30;;;;;;;;;;5033167;28;20197;-70
2021/07/19 10:29:03;;;;;;;14.48;8.45;;;;;;;;;;5040381;28;20693;-68
2021/07/19 10:31:29;;;;;;;11.77;7.93;;;;;;;;;;5036781;28;20239;-67
2021/07/19 10:33:56;;;;;;;11.38;7.78;;;;;;;;;;5049388;28;20205;-68
2021/07/19 10:36:40;;;;;;;13.00;7.95;;;;;;;;;;5034556;28;20196;-68
2021/07/19 10:39:09;;;;;;;12.20;8.25;;;;;;;;;;5044143;28;20196;-70
2021/07/19 10:41:36;;;;;;;13.13;7.68;;;;;;;;;;5033276;28;20538;-68
2021/07/19 10:44:08;;;;;;;13.35;7.32;;;;;;;;;;5046002;28;20208;-68
2021/07/19 10:46:35;;;;;;;12.07;7.60;;;;;;;;;;5031817;28;20227;-69
2021/07/19 10:49:09;;;;;;;14.35;7.75;;;;;;;;;;5045509;28;20191;-68
2021/07/19 10:51:43;;;;;;;11.13;7.75;;;;;;;;;;5045178;28;20586;-69
2021/07/19 10:54:23;;;;;;;11.80;7.57;;;;;;;;;;5048234;28;20189;-68
2021/07/19 10:56:51;;;;;;;12.95;8.82;;;;;;;;;;5046336;28;20219;-71
2021/07/19 10:59:23;;;;;;;13.05;7.97;;;;;;;;;;5032217;28;20696;-69
2021/07/19 11:01:54;;;;;;;12.68;8.48;;;;;;;;;;5042879;28;20181;-71
2021/07/19 11:04:19;;;;;;;13.05;7.95;;;;;;;;;;5030884;28;20208;-71
2021/07/19 11:06:48;;;;;;;14.63;8.13;;;;;;;;;;5043889;28;20224;-69
2021/07/19 11:09:14;;;;;;;13.68;7.80;;;;;;;;;;5035034;28;20330;-68
2021/07/19 11:11:42;;;;;;;12.75;7.80;;;;;;;;;;5045899;28;20260;-71
2021/07/19 11:14:15;;;;;;;14.27;7.80;;;;;;;;;;5038812;28;20180;-68
2021/07/19 11:16:44;;;;;;;14.40;7.90;;;;;;;;;;5045563;28;20587;-69
2021/07/19 11:19:10;;;;;;;11.82;8.05;;;;;;;;;;5030892;28;20525;-71
2021/07/19 11:21:35;;;;;;;9.80;7.43;;;;;;;;;;5052570;28;20192;-71
2021/07/19 11:24:08;;;;;;;10.52;7.50;;;;;;;;;;5034272;28;20202;-70
2021/07/19 11:26:33;;;;;;;15.35;7.90;;;;;;;;;;5045080;28;20559;-70
2021/07/19 11:28:59;;;;;;;12.68;7.43;;;;;;;;;;5036254;28;20219;-72
2021/07/19 11:31:30;;;;;;;16.05;7.72;;;;;;;;;;5046756;28;20268;-71
2021/07/19 11:34:00;;;;;;;11.90;7.43;;;;;;;;;;5033880;28;20189;-69
2021/07/19 11:36:29;;;;;;;14.27;7.80;;;;;;;;;;5041178;28;20691;-71
2021/07/19 11:39:00;;;;;;;12.13;7.05;;;;;;;;;;5046079;28;20713;-69
2021/07/19 11:41:27;;;;;;;9.93;6.22;;;;;;;;;;5043797;28;20181;-69
2021/07/19 11:43:59;;;;;;;12.88;6.50;;;;;;;;;;5044761;28;20204;-70
2021/07/19 11:46:37;;;;;;;11.27;6.90;;;;;;;;;;5030675;28;20263;-69
2021/07/19 11:49:10;;;;;;;10.68;6.60;;;;;;;;;;5043899;28;20544;-69
2021/07/19 11:51:44;;;;;;;12.23;6.85;;;;;;;;;;5014422;28;20264;-72
2021/07/19 11:54:12;;;;;;;13.18;7.20;;;;;;;;;;5043730;28;20178;-69
2021/07/19 12:06:50;;;;;;;12.60;7.43;;;;;;;;;;5032778;28;20282;-69
2021/07/19 12:09:15;;;;;;;12.25;6.90;;;;;;;;;;5043473;28;20181;-69
2021/07/19 12:11:41;;;;;;;12.10;6.90;;;;;;;;;;5038150;28;20196;-68
2021/07/19 12:14:09;;;;;;;14.13;7.35;;;;;;;;;;5041685;28;20169;-70
2021/07/19 12:16:40;;;;;;;11.77;6.97;;;;;;;;;;5044739;28;20193;-68
2021/07/19 12:19:07;;;;;;;11.02;7.28;;;;;;;;;;5040076;28;20735;-70
2021/07/19 12:21:38;;;;;;;13.23;7.53;;;;;;;;;;5034900;28;20186;-68
2021/07/19 12:24:04;;;;;;;12.50;7.97;;;;;;;;;;5043427;28;20243;-70
2021/07/19 12:26:32;;;;;;;13.50;8.00;;;;;;;;;;5036271;28;20181;-71
2021/07/19 12:29:03;;;;;;;13.13;7.95;;;;;;;;;;5045309;28;20668;-72
2021/07/19 12:31:46;;;;;;;12.25;7.50;;;;;;;;;;5042483;28;20557;-69
2021/07/19 12:34:36;;;;;;;12.95;7.47;;;;;;;;;;5042821;28;20174;-72
2021/07/19 12:37:06;;;;;;;13.15;8.07;;;;;;;;;;5029861;28;20577;-70
2021/07/19 12:39:36;;;;;;;9.65;6.90;;;;;;;;;;5048248;28;20213;-69
2021/07/19 12:42:06;;;;;;;11.23;7.30;;;;;;;;;;5042940;28;20264;-71
2021/07/19 12:44:32;;;;;;;12.55;8.18;;;;;;;;;;5040792;28;20293;-69
2021/07/19 12:46:58;;;;;;;16.80;7.70;;;;;;;;;;5042268;28;20284;-69
2021/07/19 12:49:30;;;;;;;11.57;8.07;;;;;;;;;;5034171;28;20185;-69
2021/07/19 12:52:05;;;;;;;13.57;8.30;;;;;;;;;;5043512;28;20649;-71
2021/07/19 12:54:31;;;;;;;13.57;8.13;;;;;;;;;;5032837;28;20263;-69
2021/07/19 12:56:57;;;;;;;13.05;7.15;;;;;;;;;;5043578;28;20181;-68
2021/07/19 12:59:23;;;;;;;10.77;7.78;;;;;;;;;;5036765;28;20209;-69
2021/07/19 13:01:49;;;;;;;11.98;7.30;;;;;;;;;;5042844;28;20627;-71
2021/07/19 13:04:21;;;;;;;14.98;8.25;;;;;;;;;;5035634;28;20205;-69
2021/07/19 13:06:47;;;;;;;13.13;7.95;;;;;;;;;;5042124;28;20182;-69
2021/07/19 13:09:22;;;;;;;13.45;8.50;;;;;;;;;;5039165;28;20181;-71
2021/07/19 13:11:51;;;;;;;12.82;7.65;;;;;;;;;;5048594;28;20692;-71
2021/07/19 13:14:18;;;;;;;13.27;7.75;;;;;;;;;;5041765;28;20201;-70
2021/07/19 13:16:56;;;;;;;10.88;7.93;;;;;;;;;;5048167;28;20182;-70
2021/07/19 13:19:39;;;;;;;11.23;7.65;;;;;;;;;;5041858;28;20209;-69
2021/07/19 13:22:09;;;;;;;12.57;7.70;;;;;;;;;;5044679;28;20192;-69
2021/07/19 13:24:41;;;;;;;14.25;8.00;;;;;;;;;;5041901;28;20210;-68
2021/07/19 13:27:07;;;;;;;13.55;8.23;;;;;;;;;;5048005;28;20268;-70
2021/07/19 13:29:33;;;;;;;14.15;7.97;;;;;;;;;;5042858;28;20186;-69
2021/07/19 13:32:04;;;;;;;13.23;8.52;;;;;;;;;;5051344;28;20329;-69
2021/07/19 13:34:29;;;;;;;14.63;8.55;;;;;;;;;;5043821;28;20193;-69
2021/07/19 13:36:54;;;;;;;15.65;8.27;;;;;;;;;;5037837;28;20188;-69
2021/07/19 13:39:28;;;;;;;12.48;8.10;;;;;;;;;;5046255;28;20310;-71
2021/07/19 13:42:13;;;;;;;14.30;8.30;;;;;;;;;;5037654;28;20178;-69
2021/07/19 13:44:40;;;;;;;12.70;8.82;;;;;;;;;;5045825;28;20222;-69
2021/07/19 13:47:06;;;;;;;17.20;8.40;;;;;;;;;;5041274;28;20258;-69
2021/07/19 13:49:32;;;;;;;12.55;7.90;;;;;;;;;;5050459;28;20193;-71
2021/07/19 13:51:57;;;;;;;15.02;7.55;;;;;;;;;;5023946;28;20236;-71
2021/07/19 13:54:23;;;;;;;15.45;7.60;;;;;;;;;;5026728;28;20186;-70
2021/07/19 13:56:48;;;;;;;14.25;7.75;;;;;;;;;;5023152;28;20280;-69
2021/07/19 13:59:14;;;;;;;14.18;7.82;;;;;;;;;;5022410;28;20253;-71
2021/07/19 14:01:39;;;;;;;10.63;6.72;;;;;;;;;;5015788;28;20193;-69
2021/07/19 14:04:04;;;;;;;16.48;7.35;;;;;;;;;;5008885;28;20209;-70
2021/07/19 14:06:31;;;;;;;11.45;6.60;;;;;;;;;;5020945;28;20178;-71
2021/07/19 14:08:56;;;;;;;11.48;7.22;;;;;;;;;;5025981;28;20190;-71
2021/07/19 14:11:22;;;;;;;10.40;6.82;;;;;;;;;;5028526;28;20205;-70
2021/07/19 14:13:47;;;;;;;13.45;6.35;;;;;;;;;;5020060;28;20267;-70
2021/07/19 14:16:12;;;;;;;10.30;6.00;;;;;;;;;;5030032;28;20175;-68
2021/07/19 14:18:38;;;;;;;10.27;6.40;;;;;;;;;;5017892;28;20201;-69
2021/07/19 14:21:04;;;;;;;9.48;6.07;;;;;;;;;;5029955;28;20190;-71
2021/07/19 14:23:29;;;;;;;13.32;6.47;;;;;;;;;;5019286;28;20217;-69
2021/07/19 14:25:54;;;;;;;9.48;6.28;;;;;;;;;;5029937;28;20178;-72
2021/07/19 14:28:20;;;;;;;11.20;6.25;;;;;;;;;;5003551;28;20264;-71
2021/07/19 14:30:45;;;;;;;11.00;5.75;;;;;;;;;;5026016;28;20248;-69
2021/07/19 14:33:11;;;;;;;9.32;6.10;;;;;;;;;;5017755;28;20223;-70
2021/07/19 14:35:36;;;;;;;8.95;6.15;;;;;;;;;;5034606;28;20301;-70
2021/07/19 14:38:02;;;;;;;11.38;6.25;;;;;;;;;;5018136;28;20252;-69
2021/07/19 14:40:27;;;;;;;10.75;5.53;;;;;;;;;;5031042;28;20225;-69